Time;durP1;ratioP1;P1;durP2;ratioP2;P2;SDS_P1;SDS_P2;PMS_P1;PMS_P2;Temp;Humidity;BMP_temperature;BMP_pressure;BME280_temperature;BME280_humidity;BME280_pressure;Samples;Min_cycle;Max_cycle;Signal;HPM_P1;HPM_P2
2022/07/18 00:00:37;;;;;;;;;;;;;;;;;;5097648;28;20399;-40
2022/07/18 00:03:02;;;;;;;;;;;;;;;;;;5097947;28;19958;-40
2022/07/18 00:05:27;;;;;;;;;;;;;;;;;;5097557;28;20007;-40
2022/07/18 00:07:52;;;;;;;;;;;;;;;;;;5097878;28;19912;-40
2022/07/18 00:10:17;;;;;;;;;;;;;;;;;;5097805;28;19908;-42
2022/07/18 00:12:42;;;;;;;;;;;;;;;;;;5097932;28;20386;-41
2022/07/18 00:15:07;;;;;;;;;;;;;;;;;;5097939;28;19958;-42
2022/07/18 00:17:33;;;;;;;;;;;;;;;;;;5097417;28;20267;-41
2022/07/18 00:19:58;;;;;;;;;;;;;;;;;;5097370;28;19931;-41
2022/07/18 00:22:23;;;;;;;;;;;;;;;;;;5097203;28;19916;-41
2022/07/18 00:24:48;;;;;;;;;;;;;;;;;;5097258;28;20302;-41
2022/07/18 00:27:13;;;;;;;;;;;;;;;;;;5097278;28;20407;-41
2022/07/18 00:29:39;;;;;;;;;;;;;;;;;;5097180;28;19999;-41
2022/07/18 00:32:04;;;;;;;;;;;;;;;;;;5097262;28;20335;-41
2022/07/18 00:34:29;;;;;;;;;;;;;;;;;;5097325;28;19920;-41
2022/07/18 00:36:54;;;;;;;;;;;;;;;;;;5097123;28;19908;-41
2022/07/18 00:39:19;;;;;;;;;;;;;;;;;;5097275;28;19908;-41
2022/07/18 00:41:44;;;;;;;;;;;;;;;;;;5097272;28;19912;-41
2022/07/18 00:44:09;;;;;;;;;;;;;;;;;;5097110;28;19912;-41
2022/07/18 00:46:34;;;;;;;;;;;;;;;;;;5097011;28;19908;-41
2022/07/18 00:49:00;;;;;;;;;;;;;;;;;;5096780;28;19911;-41
2022/07/18 00:51:25;;;;;;;;;;;;;;;;;;5096753;28;19908;-41
2022/07/18 00:53:50;;;;;;;;;;;;;;;;;;5096774;28;19908;-42
2022/07/18 00:56:15;;;;;;;;;;;;;;;;;;5096845;28;19961;-41
2022/07/18 00:58:40;;;;;;;;;;;;;;;;;;5096704;28;19912;-41
2022/07/18 01:03:49;;;;;;;;;;;;;;;;;;5096829;28;19937;-41
2022/07/18 01:06:14;;;;;;;;;;;;;;;;;;5096635;28;19920;-41
2022/07/18 01:08:39;;;;;;;;;;;;;;;;;;5096842;28;19912;-42
2022/07/18 01:11:04;;;;;;;;;;;;;;;;;;5096384;28;19931;-41
2022/07/18 01:13:29;;;;;;;;;;;;;;;;;;5095993;28;19961;-41
2022/07/18 01:15:54;;;;;;;;;;;;;;;;;;5096641;28;19965;-41
2022/07/18 01:18:19;;;;;;;;;;;;;;;;;;5096378;28;19962;-41
2022/07/18 01:20:44;;;;;;;;;;;;;;;;;;5096584;28;19915;-40
2022/07/18 01:23:09;;;;;;;;;;;;;;;;;;5096643;28;19908;-41
2022/07/18 01:25:34;;;;;;;;;;;;;;;;;;5096589;28;19915;-41
2022/07/18 01:28:00;;;;;;;;;;;;;;;;;;5096324;28;20414;-41
2022/07/18 01:30:25;;;;;;;;;;;;;;;;;;5096547;28;20005;-41
2022/07/18 01:32:50;;;;;;;;;;;;;;;;;;5096401;28;19908;-41
2022/07/18 01:35:15;;;;;;;;;;;;;;;;;;5096333;28;19918;-41
2022/07/18 01:37:40;;;;;;;;;;;;;;;;;;5096250;28;19944;-42
2022/07/18 01:40:05;;;;;;;;;;;;;;;;;;5096403;28;19912;-41
2022/07/18 01:42:30;;;;;;;;;;;;;;;;;;5096252;28;19919;-41
2022/07/18 01:44:55;;;;;;;;;;;;;;;;;;5096176;28;19930;-41
2022/07/18 01:47:21;;;;;;;;;;;;;;;;;;5094507;28;19908;-41
2022/07/18 01:49:46;;;;;;;;;;;;;;;;;;5096033;28;19950;-41
2022/07/18 01:52:11;;;;;;;;;;;;;;;;;;5095903;28;19908;-41
2022/07/18 01:54:36;;;;;;;;;;;;;;;;;;5095634;28;19912;-41
2022/07/18 01:57:01;;;;;;;;;;;;;;;;;;5095466;28;19961;-41
2022/07/18 01:59:26;;;;;;;;;;;;;;;;;;5095293;28;19908;-42
2022/07/18 02:01:52;;;;;;;;;;;;;;;;;;5094549;28;20358;-42
2022/07/18 02:04:17;;;;;;;;;;;;;;;;;;5095527;28;19912;-40
2022/07/18 02:06:42;;;;;;;;;;;;;;;;;;5095764;28;19920;-41
2022/07/18 02:09:07;;;;;;;;;;;;;;;;;;5095947;28;19908;-41
2022/07/18 02:11:32;;;;;;;;;;;;;;;;;;5095905;28;20347;-41
2022/07/18 02:13:57;;;;;;;;;;;;;;;;;;5095476;28;20248;-40
2022/07/18 02:16:22;;;;;;;;;;;;;;;;;;5095614;28;19953;-41
2022/07/18 02:18:47;;;;;;;;;;;;;;;;;;5095265;28;19915;-41
2022/07/18 02:21:15;;;;;;;;;;;;;;;;;;5095372;28;19914;-41
2022/07/18 02:23:41;;;;;;;;;;;;;;;;;;5094948;28;19909;-42
2022/07/18 02:26:06;;;;;;;;;;;;;;;;;;5095143;28;19912;-41
2022/07/18 02:28:31;;;;;;;;;;;;;;;;;;5095347;28;19908;-41
2022/07/18 02:30:56;;;;;;;;;;;;;;;;;;5095225;28;20418;-41
2022/07/18 02:33:21;;;;;;;;;;;;;;;;;;5095034;28;19916;-40
2022/07/18 02:35:46;;;;;;;;;;;;;;;;;;5095106;28;19942;-41
2022/07/18 02:38:11;;;;;;;;;;;;;;;;;;5095430;28;19915;-40
2022/07/18 02:40:36;;;;;;;;;;;;;;;;;;5095971;28;19908;-41
2022/07/18 02:43:01;;;;;;;;;;;;;;;;;;5095306;28;19908;-41
2022/07/18 02:45:26;;;;;;;;;;;;;;;;;;5095395;28;19909;-41
2022/07/18 02:47:52;;;;;;;;;;;;;;;;;;5095544;28;19908;-41
2022/07/18 02:50:17;;;;;;;;;;;;;;;;;;5095072;28;20344;-41
2022/07/18 02:52:42;;;;;;;;;;;;;;;;;;5094436;28;20252;-41
2022/07/18 02:55:07;;;;;;;;;;;;;;;;;;5095270;28;19912;-41
2022/07/18 02:57:32;;;;;;;;;;;;;;;;;;5095169;28;19958;-41
2022/07/18 02:59:57;;;;;;;;;;;;;;;;;;5095675;28;19914;-41
2022/07/18 03:02:22;;;;;;;;;;;;;;;;;;5095240;28;19929;-42
2022/07/18 03:04:48;;;;;;;;;;;;;;;;;;5095229;28;19955;-41
2022/07/18 03:07:13;;;;;;;;;;;;;;;;;;5095316;28;20416;-40
2022/07/18 03:09:38;;;;;;;;;;;;;;;;;;5095293;28;20390;-40
2022/07/18 03:12:03;;;;;;;;;;;;;;;;;;5095375;28;19909;-40
2022/07/18 03:14:28;;;;;;;;;;;;;;;;;;5095237;28;20359;-40
2022/07/18 03:16:53;;;;;;;;;;;;;;;;;;5095138;28;19911;-40
2022/07/18 03:19:18;;;;;;;;;;;;;;;;;;5094901;28;19912;-41
2022/07/18 03:21:43;;;;;;;;;;;;;;;;;;5095048;28;20011;-40
2022/07/18 03:24:10;;;;;;;;;;;;;;;;;;5095021;28;19999;-40
2022/07/18 03:26:35;;;;;;;;;;;;;;;;;;5095110;28;19912;-40
2022/07/18 03:29:00;;;;;;;;;;;;;;;;;;5094963;28;20007;-40
2022/07/18 03:31:25;;;;;;;;;;;;;;;;;;5094725;28;20271;-40
2022/07/18 03:33:51;;;;;;;;;;;;;;;;;;5095164;28;20282;-40
2022/07/18 03:36:16;;;;;;;;;;;;;;;;;;5096738;28;19912;-40
2022/07/18 03:38:42;;;;;;;;;;;;;;;;;;5099097;28;20030;-40
2022/07/18 03:41:08;;;;;;;;;;;;;;;;;;5098493;28;19908;-40
2022/07/18 03:43:33;;;;;;;;;;;;;;;;;;5098531;28;19908;-40
2022/07/18 03:45:58;;;;;;;;;;;;;;;;;;5098715;28;20359;-40
2022/07/18 03:48:23;;;;;;;;;;;;;;;;;;5099037;28;19908;-40
2022/07/18 03:50:48;;;;;;;;;;;;;;;;;;5098744;28;19908;-40
2022/07/18 03:53:13;;;;;;;;;;;;;;;;;;5098815;28;19909;-39
2022/07/18 03:55:38;;;;;;;;;;;;;;;;;;5098234;28;19920;-40
2022/07/18 03:58:03;;;;;;;;;;;;;;;;;;5098254;28;19908;-40
2022/07/18 04:00:28;;;;;;;;;;;;;;;;;;5098421;28;19908;-41
2022/07/18 04:02:53;;;;;;;;;;;;;;;;;;5098057;28;19908;-40
2022/07/18 04:05:19;;;;;;;;;;;;;;;;;;5098069;28;20407;-41
2022/07/18 04:07:44;;;;;;;;;;;;;;;;;;5098004;28;20007;-40
2022/07/18 04:10:09;;;;;;;;;;;;;;;;;;5098199;28;19991;-40
2022/07/18 04:12:34;;;;;;;;;;;;;;;;;;5098044;28;20378;-42
2022/07/18 04:14:59;;;;;;;;;;;;;;;;;;5098131;28;20325;-40
2022/07/18 04:17:24;;;;;;;;;;;;;;;;;;5096713;28;19908;-41
2022/07/18 04:19:49;;;;;;;;;;;;;;;;;;5097813;28;19908;-40
2022/07/18 04:22:14;;;;;;;;;;;;;;;;;;5097747;28;20328;-41
2022/07/18 04:24:40;;;;;;;;;;;;;;;;;;5097546;28;20365;-40
2022/07/18 04:27:05;;;;;;;;;;;;;;;;;;5097716;28;19971;-40
2022/07/18 04:29:31;;;;;;;;;;;;;;;;;;5097811;28;20003;-40
2022/07/18 04:31:56;;;;;;;;;;;;;;;;;;5097835;28;19913;-40
2022/07/18 04:34:21;;;;;;;;;;;;;;;;;;5097566;28;19956;-41
2022/07/18 04:36:46;;;;;;;;;;;;;;;;;;5097512;28;19961;-40
2022/07/18 04:39:11;;;;;;;;;;;;;;;;;;5097302;28;20415;-40
2022/07/18 04:41:37;;;;;;;;;;;;;;;;;;5097490;28;20278;-40
2022/07/18 04:44:02;;;;;;;;;;;;;;;;;;5097751;28;19910;-40
2022/07/18 04:46:27;;;;;;;;;;;;;;;;;;5096871;28;19934;-40
2022/07/18 04:48:52;;;;;;;;;;;;;;;;;;5095796;28;19961;-40
2022/07/18 04:51:17;;;;;;;;;;;;;;;;;;5096965;28;19961;-40
2022/07/18 04:53:42;;;;;;;;;;;;;;;;;;5096995;28;19908;-41
2022/07/18 04:56:07;;;;;;;;;;;;;;;;;;5097000;28;19912;-40
2022/07/18 04:58:32;;;;;;;;;;;;;;;;;;5097092;28;19961;-41
2022/07/18 05:00:57;;;;;;;;;;;;;;;;;;5097347;28;19915;-40
2022/07/18 05:03:22;;;;;;;;;;;;;;;;;;5096998;28;19908;-40
2022/07/18 05:05:48;;;;;;;;;;;;;;;;;;5096766;28;19927;-40
2022/07/18 05:08:13;;;;;;;;;;;;;;;;;;5095920;28;19908;-41
2022/07/18 05:10:39;;;;;;;;;;;;;;;;;;5097037;28;19916;-41
2022/07/18 05:13:04;;;;;;;;;;;;;;;;;;5096743;28;19997;-40
2022/07/18 05:15:29;;;;;;;;;;;;;;;;;;5096536;28;19912;-40
2022/07/18 05:17:54;;;;;;;;;;;;;;;;;;5096392;28;19916;-40
2022/07/18 05:20:19;;;;;;;;;;;;;;;;;;5096419;28;19920;-41
2022/07/18 05:22:44;;;;;;;;;;;;;;;;;;5096390;28;19961;-40
2022/07/18 05:25:09;;;;;;;;;;;;;;;;;;5096287;28;20002;-40
2022/07/18 05:27:35;;;;;;;;;;;;;;;;;;5094838;28;20015;-41
2022/07/18 05:30:00;;;;;;;;;;;;;;;;;;5094538;28;19908;-40
2022/07/18 05:32:25;;;;;;;;;;;;;;;;;;5093323;28;19916;-41
2022/07/18 05:34:50;;;;;;;;;;;;;;;;;;5087948;28;19923;-41
2022/07/18 05:37:15;;;;;;;;;;;;;;;;;;5089407;28;19927;-41
2022/07/18 05:39:40;;;;;;;;;;;;;;;;;;5085063;28;19923;-40
2022/07/18 05:42:05;;;;;;;;;;;;;;;;;;5086709;28;19923;-41
2022/07/18 05:44:30;;;;;;;;;;;;;;;;;;5083048;28;19919;-40
2022/07/18 05:46:55;;;;;;;;;;;;;;;;;;5087170;28;19912;-41
2022/07/18 05:49:21;;;;;;;;;;;;;;;;;;5085994;28;20363;-40
2022/07/18 05:51:46;;;;;;;;;;;;;;;;;;5087243;28;19916;-42
2022/07/18 05:54:11;;;;;;;;;;;;;;;;;;5085110;28;19912;-41
2022/07/18 05:56:36;;;;;;;;;;;;;;;;;;5088653;28;19912;-40
2022/07/18 05:59:01;;;;;;;;;;;;;;;;;;5082043;28;19913;-41
2022/07/18 06:01:26;;;;;;;;;;;;;;;;;;5083791;28;19943;-42
2022/07/18 06:03:51;;;;;;;;;;;;;;;;;;5088580;28;20676;-41
2022/07/18 06:06:18;;;;;;;;;;;;;;;;;;5087456;28;19920;-40
2022/07/18 06:08:43;;;;;;;;;;;;;;;;;;5080615;28;19922;-40
2022/07/18 06:11:09;;;;;;;;;;;;;;;;;;5071235;28;20355;-42
2022/07/18 06:13:34;;;;;;;;;;;;;;;;;;5076035;28;19999;-41
2022/07/18 06:15:59;;;;;;;;;;;;;;;;;;5077502;28;19974;-41
2022/07/18 06:18:24;;;;;;;;;;;;;;;;;;5075791;28;20011;-41
2022/07/18 06:20:49;;;;;;;;;;;;;;;;;;5077780;28;19966;-41
2022/07/18 06:23:14;;;;;;;;;;;;;;;;;;5078683;28;20639;-41
2022/07/18 06:25:39;;;;;;;;;;;;;;;;;;5084158;28;19966;-41
2022/07/18 06:28:04;;;;;;;;;;;;;;;;;;5080593;28;20042;-41
2022/07/18 06:30:29;;;;;;;;;;;;;;;;;;5074355;28;19920;-42
2022/07/18 06:32:55;;;;;;;;;;;;;;;;;;5081558;28;19983;-41
2022/07/18 06:35:20;;;;;;;;;;;;;;;;;;5073480;28;19999;-42
2022/07/18 06:37:46;;;;;;;;;;;;;;;;;;5083150;28;19918;-41
2022/07/18 06:40:11;;;;;;;;;;;;;;;;;;5079323;28;19920;-41
2022/07/18 06:42:36;;;;;;;;;;;;;;;;;;5078026;28;19959;-41
2022/07/18 06:45:02;;;;;;;;;;;;;;;;;;5083138;28;19912;-41
2022/07/18 06:47:27;;;;;;;;;;;;;;;;;;5074290;28;19961;-41
2022/07/18 06:49:52;;;;;;;;;;;;;;;;;;5083653;28;19965;-41
2022/07/18 06:52:18;;;;;;;;;;;;;;;;;;5064088;28;19922;-41
2022/07/18 06:54:43;;;;;;;;;;;;;;;;;;5072573;28;19916;-41
2022/07/18 06:57:09;;;;;;;;;;;;;;;;;;5065905;28;20019;-41
2022/07/18 06:59:34;;;;;;;;;;;;;;;;;;5073965;28;19920;-41
2022/07/18 07:01:59;;;;;;;;;;;;;;;;;;5063252;28;19920;-41
2022/07/18 07:04:24;;;;;;;;;;;;;;;;;;5065264;28;19920;-41
2022/07/18 07:06:49;;;;;;;;;;;;;;;;;;5059413;28;19947;-41
2022/07/18 07:09:14;;;;;;;;;;;;;;;;;;5066503;28;19912;-41
2022/07/18 07:11:40;;;;;;;;;;;;;;;;;;5062813;28;20303;-41
2022/07/18 07:14:05;;;;;;;;;;;;;;;;;;5072249;28;20015;-41
2022/07/18 07:16:30;;;;;;;;;;;;;;;;;;5073376;28;19912;-41
2022/07/18 07:18:55;;;;;;;;;;;;;;;;;;5075149;28;19955;-43
2022/07/18 07:21:20;;;;;;;;;;;;;;;;;;5077795;28;20010;-42
2022/07/18 07:23:45;;;;;;;;;;;;;;;;;;5067869;28;20563;-41
2022/07/18 07:26:10;;;;;;;;;;;;;;;;;;5063800;28;19963;-41
2022/07/18 07:28:35;;;;;;;;;;;;;;;;;;5063460;28;19966;-41
2022/07/18 07:31:00;;;;;;;;;;;;;;;;;;5063659;28;19920;-42
2022/07/18 07:33:25;;;;;;;;;;;;;;;;;;5066380;28;19934;-41
2022/07/18 07:35:51;;;;;;;;;;;;;;;;;;5074968;28;19949;-41
2022/07/18 07:38:19;;;;;;;;;;;;;;;;;;5065440;28;19945;-42
2022/07/18 07:40:44;;;;;;;;;;;;;;;;;;5062591;28;19916;-42
2022/07/18 07:43:09;;;;;;;;;;;;;;;;;;5064012;28;20278;-42
2022/07/18 07:45:34;;;;;;;;;;;;;;;;;;5055534;28;19922;-41
2022/07/18 07:47:59;;;;;;;;;;;;;;;;;;5066106;28;19951;-42
2022/07/18 07:50:24;;;;;;;;;;;;;;;;;;5069046;28;20367;-41
2022/07/18 07:52:50;;;;;;;;;;;;;;;;;;5066685;28;19912;-42
2022/07/18 07:55:15;;;;;;;;;;;;;;;;;;5064537;28;20101;-41
2022/07/18 07:57:40;;;;;;;;;;;;;;;;;;5054527;28;19912;-42
2022/07/18 08:00:06;;;;;;;;;;;;;;;;;;5057674;28;19920;-41
2022/07/18 08:02:31;;;;;;;;;;;;;;;;;;5055769;28;19939;-41
2022/07/18 08:04:56;;;;;;;;;;;;;;;;;;5063330;22;19931;-42
2022/07/18 08:07:21;;;;;;;;;;;;;;;;;;5068643;28;19925;-41
2022/07/18 08:09:46;;;;;;;;;;;;;;;;;;5058792;28;19945;-42
2022/07/18 08:12:11;;;;;;;;;;;;;;;;;;5061780;28;19920;-42
2022/07/18 08:14:39;;;;;;;;;;;;;;;;;;5064800;28;19924;-41
2022/07/18 08:17:05;;;;;;;;;;;;;;;;;;5063868;28;19971;-42
2022/07/18 08:19:30;;;;;;;;;;;;;;;;;;5072358;28;20403;-42
2022/07/18 08:21:55;;;;;;;;;;;;;;;;;;5069692;28;20416;-42
2022/07/18 08:24:20;;;;;;;;;;;;;;;;;;5063867;28;21900;-42
2022/07/18 08:26:45;;;;;;;;;;;;;;;;;;5048685;28;19939;-42
2022/07/18 08:29:10;;;;;;;;;;;;;;;;;;5053990;28;19923;-42
2022/07/18 08:31:36;;;;;;;;;;;;;;;;;;5045895;28;21281;-42
2022/07/18 08:34:01;;;;;;;;;;;;;;;;;;5055154;28;20318;-42
2022/07/18 08:36:26;;;;;;;;;;;;;;;;;;5049694;28;19925;-42
2022/07/18 08:38:51;;;;;;;;;;;;;;;;;;5057897;28;20240;-42
2022/07/18 08:41:16;;;;;;;;;;;;;;;;;;5045929;28;19977;-42
2022/07/18 08:43:41;;;;;;;;;;;;;;;;;;5046969;28;19927;-42
2022/07/18 08:46:07;;;;;;;;;;;;;;;;;;5048834;28;19920;-41
2022/07/18 08:48:32;;;;;;;;;;;;;;;;;;5051986;28;20026;-42
2022/07/18 08:50:57;;;;;;;;;;;;;;;;;;5055958;28;19931;-43
2022/07/18 08:53:22;;;;;;;;;;;;;;;;;;5034802;28;19920;-42
2022/07/18 08:55:47;;;;;;;;;;;;;;;;;;5053304;28;19947;-42
2022/07/18 08:58:14;;;;;;;;;;;;;;;;;;5047808;28;19920;-42
2022/07/18 09:00:39;;;;;;;;;;;;;;;;;;5056591;28;23528;-42
2022/07/18 09:03:04;;;;;;;;;;;;;;;;;;5044274;28;19955;-43
2022/07/18 09:05:29;;;;;;;;;;;;;;;;;;5056142;28;19919;-42
2022/07/18 09:07:54;;;;;;;;;;;;;;;;;;5050742;28;19920;-42
2022/07/18 09:10:19;;;;;;;;;;;;;;;;;;5060019;28;19916;-42
2022/07/18 09:12:44;;;;;;;;;;;;;;;;;;5059026;28;19920;-42
2022/07/18 09:15:15;;;;;;;;;;;;;;;;;;5056501;28;19928;-42
2022/07/18 09:20:24;;;;;;;;;;;;;;;;;;5061216;28;19919;-42
2022/07/18 09:22:49;;;;;;;;;;;;;;;;;;5061541;28;19916;-42
2022/07/18 09:25:14;;;;;;;;;;;;;;;;;;5057262;28;20364;-42
2022/07/18 09:27:39;;;;;;;;;;;;;;;;;;5056358;28;20263;-43
2022/07/18 09:30:04;;;;;;;;;;;;;;;;;;5045477;28;19917;-43
2022/07/18 09:32:29;;;;;;;;;;;;;;;;;;5025886;28;19923;-43
2022/07/18 09:34:54;;;;;;;;;;;;;;;;;;5053822;28;20019;-43
2022/07/18 09:37:20;;;;;;;;;;;;;;;;;;5045676;28;19930;-42
2022/07/18 09:39:45;;;;;;;;;;;;;;;;;;5041560;28;22580;-42
2022/07/18 09:42:10;;;;;;;;;;;;;;;;;;5044788;28;19920;-42
2022/07/18 09:44:35;;;;;;;;;;;;;;;;;;5047530;28;19921;-42
2022/07/18 09:47:00;;;;;;;;;;;;;;;;;;5058573;28;19930;-42
2022/07/18 09:49:25;;;;;;;;;;;;;;;;;;5031245;28;19920;-44
2022/07/18 09:51:50;;;;;;;;;;;;;;;;;;5051991;28;19963;-42
2022/07/18 09:54:15;;;;;;;;;;;;;;;;;;5032891;28;20019;-42
2022/07/18 09:56:42;;;;;;;;;;;;;;;;;;5047157;28;19928;-43
2022/07/18 09:59:07;;;;;;;;;;;;;;;;;;5025051;28;19992;-43
2022/07/18 10:01:32;;;;;;;;;;;;;;;;;;5034201;28;19924;-43
2022/07/18 10:03:57;;;;;;;;;;;;;;;;;;5052656;28;19924;-43
2022/07/18 10:06:23;;;;;;;;;;;;;;;;;;5060344;28;19920;-42
2022/07/18 10:08:48;;;;;;;;;;;;;;;;;;5026287;28;20067;-42
2022/07/18 10:11:13;;;;;;;;;;;;;;;;;;5053365;28;19916;-42
2022/07/18 10:13:38;;;;;;;;;;;;;;;;;;5042631;28;20272;-43
2022/07/18 10:16:04;;;;;;;;;;;;;;;;;;5058140;28;19936;-44
2022/07/18 10:18:29;;;;;;;;;;;;;;;;;;5041016;28;20051;-43
2022/07/18 10:20:55;;;;;;;;;;;;;;;;;;5039324;28;19920;-43
2022/07/18 10:23:20;;;;;;;;;;;;;;;;;;5042227;28;19920;-43
2022/07/18 10:25:45;;;;;;;;;;;;;;;;;;5047630;28;19927;-45
2022/07/18 10:28:10;;;;;;;;;;;;;;;;;;5055121;28;19920;-43
2022/07/18 10:30:36;;;;;;;;;;;;;;;;;;5052453;28;19920;-44
2022/07/18 10:33:01;;;;;;;;;;;;;;;;;;5023324;28;20046;-42
2022/07/18 10:35:26;;;;;;;;;;;;;;;;;;5043588;28;19930;-43
2022/07/18 10:37:51;;;;;;;;;;;;;;;;;;5044677;28;19927;-43
2022/07/18 10:40:16;;;;;;;;;;;;;;;;;;5049081;28;20291;-42
2022/07/18 10:42:41;;;;;;;;;;;;;;;;;;5046433;28;19920;-43
2022/07/18 10:45:06;;;;;;;;;;;;;;;;;;5033985;28;19921;-43
2022/07/18 10:47:31;;;;;;;;;;;;;;;;;;5023428;28;19931;-42
2022/07/18 10:49:57;;;;;;;;;;;;;;;;;;4998144;28;20058;-42
2022/07/18 10:52:22;;;;;;;;;;;;;;;;;;5006716;28;19924;-42
2022/07/18 10:54:47;;;;;;;;;;;;;;;;;;4993883;28;19967;-43
2022/07/18 10:57:12;;;;;;;;;;;;;;;;;;4969704;28;19920;-43
2022/07/18 10:59:37;;;;;;;;;;;;;;;;;;4967672;28;19920;-42
2022/07/18 11:02:02;;;;;;;;;;;;;;;;;;4949553;28;19920;-43
2022/07/18 11:04:27;;;;;;;;;;;;;;;;;;4965802;28;19920;-43
2022/07/18 11:06:52;;;;;;;;;;;;;;;;;;4968057;28;19924;-43
2022/07/18 11:09:18;;;;;;;;;;;;;;;;;;4968892;28;20375;-42
2022/07/18 11:11:43;;;;;;;;;;;;;;;;;;4962828;28;20427;-42
2022/07/18 11:14:08;;;;;;;;;;;;;;;;;;4982555;28;19966;-43
2022/07/18 11:16:35;;;;;;;;;;;;;;;;;;4953299;28;19928;-43
2022/07/18 11:19:00;;;;;;;;;;;;;;;;;;4992016;28;24080;-43
2022/07/18 11:21:25;;;;;;;;;;;;;;;;;;4983407;28;20026;-43
2022/07/18 11:23:50;;;;;;;;;;;;;;;;;;4979746;28;19920;-42
2022/07/18 11:26:15;;;;;;;;;;;;;;;;;;4987972;28;19943;-43
2022/07/18 11:28:41;;;;;;;;;;;;;;;;;;4982672;28;19929;-43
2022/07/18 11:31:06;;;;;;;;;;;;;;;;;;4946212;28;20014;-44
2022/07/18 11:33:31;;;;;;;;;;;;;;;;;;4876971;28;19928;-43
2022/07/18 11:35:56;;;;;;;;;;;;;;;;;;4939373;28;19925;-43
2022/07/18 11:38:21;;;;;;;;;;;;;;;;;;4984200;28;19923;-43
2022/07/18 11:40:46;;;;;;;;;;;;;;;;;;5003224;28;19920;-43
2022/07/18 11:43:11;;;;;;;;;;;;;;;;;;4988379;28;20303;-44
2022/07/18 11:45:36;;;;;;;;;;;;;;;;;;4994559;28;19920;-43
2022/07/18 11:48:01;;;;;;;;;;;;;;;;;;4999519;28;19938;-44
2022/07/18 11:50:27;;;;;;;;;;;;;;;;;;4996746;28;19952;-44
2022/07/18 11:52:52;;;;;;;;;;;;;;;;;;4969832;28;19920;-43
2022/07/18 11:55:19;;;;;;;;;;;;;;;;;;5008903;28;20391;-43
2022/07/18 11:57:44;;;;;;;;;;;;;;;;;;4990430;28;19920;-43
2022/07/18 12:00:09;;;;;;;;;;;;;;;;;;4996444;28;19920;-43
2022/07/18 12:02:34;;;;;;;;;;;;;;;;;;5002026;28;20420;-44
2022/07/18 12:05:00;;;;;;;;;;;;;;;;;;5009450;28;19943;-42
2022/07/18 12:07:25;;;;;;;;;;;;;;;;;;5008378;28;19944;-44
2022/07/18 12:09:50;;;;;;;;;;;;;;;;;;5011065;28;20457;-43
2022/07/18 12:12:15;;;;;;;;;;;;;;;;;;5000138;28;19963;-43
2022/07/18 12:14:40;;;;;;;;;;;;;;;;;;4950234;28;20034;-44
2022/07/18 12:17:05;;;;;;;;;;;;;;;;;;4928957;28;19927;-43
2022/07/18 12:19:31;;;;;;;;;;;;;;;;;;4945695;28;20054;-44
2022/07/18 12:21:56;;;;;;;;;;;;;;;;;;4956050;28;19920;-45
2022/07/18 12:24:21;;;;;;;;;;;;;;;;;;4927503;28;20058;-43
2022/07/18 12:26:46;;;;;;;;;;;;;;;;;;4949698;28;19970;-42
2022/07/18 12:29:11;;;;;;;;;;;;;;;;;;4964669;28;20033;-44
2022/07/18 12:31:36;;;;;;;;;;;;;;;;;;4960968;28;20054;-42
2022/07/18 12:34:01;;;;;;;;;;;;;;;;;;4981844;28;19920;-42
2022/07/18 12:36:26;;;;;;;;;;;;;;;;;;4951279;28;20075;-42
2022/07/18 12:38:51;;;;;;;;;;;;;;;;;;4947925;28;19927;-43
2022/07/18 12:41:17;;;;;;;;;;;;;;;;;;4945255;28;20047;-44
2022/07/18 12:43:42;;;;;;;;;;;;;;;;;;4939979;28;19920;-42
2022/07/18 12:46:07;;;;;;;;;;;;;;;;;;4929298;28;19920;-43
2022/07/18 12:48:32;;;;;;;;;;;;;;;;;;4950445;28;21320;-42
2022/07/18 12:50:58;;;;;;;;;;;;;;;;;;4965955;28;20345;-43
2022/07/18 12:53:23;;;;;;;;;;;;;;;;;;4949085;28;23677;-42
2022/07/18 12:55:48;;;;;;;;;;;;;;;;;;4955221;28;19961;-43
2022/07/18 12:58:13;;;;;;;;;;;;;;;;;;4964173;28;19920;-43
2022/07/18 13:00:38;;;;;;;;;;;;;;;;;;4954619;28;20364;-43
2022/07/18 13:03:03;;;;;;;;;;;;;;;;;;4957828;28;19942;-43
2022/07/18 13:05:29;;;;;;;;;;;;;;;;;;4954596;28;19927;-42
2022/07/18 13:07:54;;;;;;;;;;;;;;;;;;4978265;28;23327;-43
2022/07/18 13:10:19;;;;;;;;;;;;;;;;;;4971743;28;20476;-44
2022/07/18 13:12:44;;;;;;;;;;;;;;;;;;4982275;28;20025;-42
2022/07/18 13:15:09;;;;;;;;;;;;;;;;;;4967531;28;19927;-43
2022/07/18 13:17:35;;;;;;;;;;;;;;;;;;4969148;28;20095;-42
2022/07/18 13:20:00;;;;;;;;;;;;;;;;;;4963918;28;19924;-43
2022/07/18 13:22:25;;;;;;;;;;;;;;;;;;4995067;28;19920;-42
2022/07/18 13:24:50;;;;;;;;;;;;;;;;;;5010281;28;20275;-44
2022/07/18 13:27:17;;;;;;;;;;;;;;;;;;5023530;28;19920;-43
2022/07/18 13:29:51;;;;;;;;;;;;;;;;;;5029126;27;19934;-42
2022/07/18 13:32:16;;;;;;;;;;;;;;;;;;5014840;28;19920;-42
2022/07/18 13:34:41;;;;;;;;;;;;;;;;;;5011414;28;21750;-43
2022/07/18 13:37:06;;;;;;;;;;;;;;;;;;5012027;28;19920;-42
2022/07/18 13:39:31;;;;;;;;;;;;;;;;;;5011162;28;19924;-42
2022/07/18 13:41:56;;;;;;;;;;;;;;;;;;5015729;28;20360;-42
2022/07/18 13:44:21;;;;;;;;;;;;;;;;;;5024831;28;19921;-42
2022/07/18 13:46:47;;;;;;;;;;;;;;;;;;4973129;28;20063;-42
2022/07/18 13:49:12;;;;;;;;;;;;;;;;;;4985672;28;19925;-42
2022/07/18 13:51:37;;;;;;;;;;;;;;;;;;5000293;28;19920;-42
2022/07/18 13:54:02;;;;;;;;;;;;;;;;;;4969116;28;20063;-42
2022/07/18 13:56:27;;;;;;;;;;;;;;;;;;4990764;28;19921;-42
2022/07/18 13:58:52;;;;;;;;;;;;;;;;;;4962414;28;20074;-42
2022/07/18 14:01:17;;;;;;;;;;;;;;;;;;4965303;28;20609;-43
2022/07/18 14:03:43;;;;;;;;;;;;;;;;;;4969345;28;21619;-42
2022/07/18 14:06:08;;;;;;;;;;;;;;;;;;4983667;28;19920;-42
2022/07/18 14:08:33;;;;;;;;;;;;;;;;;;4978976;28;19932;-42
2022/07/18 14:10:58;;;;;;;;;;;;;;;;;;4984410;28;19917;-42
2022/07/18 14:13:23;;;;;;;;;;;;;;;;;;4987841;28;21745;-42
2022/07/18 14:15:48;;;;;;;;;;;;;;;;;;4986705;28;21406;-43
2022/07/18 14:18:13;;;;;;;;;;;;;;;;;;4970638;28;19917;-43
2022/07/18 14:20:38;;;;;;;;;;;;;;;;;;4989855;28;19921;-43
2022/07/18 14:23:04;;;;;;;;;;;;;;;;;;4977135;28;19968;-43
2022/07/18 14:25:29;;;;;;;;;;;;;;;;;;4990559;28;19931;-43
2022/07/18 14:27:54;;;;;;;;;;;;;;;;;;4991548;28;19927;-43
2022/07/18 14:30:19;;;;;;;;;;;;;;;;;;5017819;28;20034;-43
2022/07/18 14:32:44;;;;;;;;;;;;;;;;;;4984865;28;19928;-42
2022/07/18 14:35:09;;;;;;;;;;;;;;;;;;4896666;28;20001;-42
2022/07/18 14:37:34;;;;;;;;;;;;;;;;;;4958550;28;20375;-42
2022/07/18 14:39:59;;;;;;;;;;;;;;;;;;4979954;28;20100;-42
2022/07/18 14:42:25;;;;;;;;;;;;;;;;;;4994373;28;19921;-44
2022/07/18 14:44:50;;;;;;;;;;;;;;;;;;5012402;28;19920;-43
2022/07/18 14:47:15;;;;;;;;;;;;;;;;;;5004476;28;19927;-43
2022/07/18 14:49:40;;;;;;;;;;;;;;;;;;4995203;28;19925;-43
2022/07/18 14:52:05;;;;;;;;;;;;;;;;;;4994060;28;19920;-43
2022/07/18 14:54:30;;;;;;;;;;;;;;;;;;4977650;28;21331;-43
2022/07/18 14:56:56;;;;;;;;;;;;;;;;;;5002830;28;19920;-43
2022/07/18 14:59:21;;;;;;;;;;;;;;;;;;4986968;28;19924;-43
2022/07/18 15:01:46;;;;;;;;;;;;;;;;;;4986380;28;20047;-43
2022/07/18 15:04:12;;;;;;;;;;;;;;;;;;5002883;28;19936;-42
2022/07/18 15:06:37;;;;;;;;;;;;;;;;;;4987355;28;20249;-43
2022/07/18 15:09:02;;;;;;;;;;;;;;;;;;5004971;28;19983;-43
2022/07/18 15:11:27;;;;;;;;;;;;;;;;;;4997697;28;19921;-43
2022/07/18 15:13:52;;;;;;;;;;;;;;;;;;4965036;28;19920;-42
2022/07/18 15:16:17;;;;;;;;;;;;;;;;;;4944571;28;21367;-43
2022/07/18 15:18:42;;;;;;;;;;;;;;;;;;4935330;28;20681;-42
2022/07/18 15:21:08;;;;;;;;;;;;;;;;;;4961664;28;19928;-42
2022/07/18 15:23:33;;;;;;;;;;;;;;;;;;4975614;28;19921;-42
2022/07/18 15:25:58;;;;;;;;;;;;;;;;;;4967172;28;20022;-44
2022/07/18 15:28:23;;;;;;;;;;;;;;;;;;4983455;28;20387;-44
2022/07/18 15:30:48;;;;;;;;;;;;;;;;;;4974502;28;19924;-43
2022/07/18 15:33:13;;;;;;;;;;;;;;;;;;4999172;28;20347;-44
2022/07/18 15:35:39;;;;;;;;;;;;;;;;;;4986607;28;19921;-44
2022/07/18 15:38:04;;;;;;;;;;;;;;;;;;4978395;28;21381;-42
2022/07/18 15:40:29;;;;;;;;;;;;;;;;;;4954172;28;20598;-43
2022/07/18 15:42:54;;;;;;;;;;;;;;;;;;4954255;28;19998;-43
2022/07/18 15:45:19;;;;;;;;;;;;;;;;;;4975221;28;21375;-42
2022/07/18 15:47:44;;;;;;;;;;;;;;;;;;4977519;28;19966;-44
2022/07/18 15:50:11;;;;;;;;;;;;;;;;;;4980511;28;19924;-44
2022/07/18 15:52:37;;;;;;;;;;;;;;;;;;4983417;28;21025;-43
2022/07/18 15:55:02;;;;;;;;;;;;;;;;;;4993317;28;19920;-43
2022/07/18 15:57:27;;;;;;;;;;;;;;;;;;5012127;28;20037;-42
2022/07/18 15:59:52;;;;;;;;;;;;;;;;;;5008621;28;20441;-42
2022/07/18 16:02:17;;;;;;;;;;;;;;;;;;5005169;28;19973;-43
2022/07/18 16:04:43;;;;;;;;;;;;;;;;;;5015862;28;20101;-43
2022/07/18 16:07:08;;;;;;;;;;;;;;;;;;5019424;28;19923;-43
2022/07/18 16:09:33;;;;;;;;;;;;;;;;;;5012700;28;19925;-43
2022/07/18 16:11:58;;;;;;;;;;;;;;;;;;5028561;28;19927;-42
2022/07/18 16:14:23;;;;;;;;;;;;;;;;;;5032039;28;19952;-42
2022/07/18 16:16:49;;;;;;;;;;;;;;;;;;5034566;28;19966;-42
2022/07/18 16:19:14;;;;;;;;;;;;;;;;;;5034555;28;19974;-43
2022/07/18 16:21:39;;;;;;;;;;;;;;;;;;5040730;28;20419;-42
2022/07/18 16:24:04;;;;;;;;;;;;;;;;;;5029479;28;19928;-43
2022/07/18 16:26:29;;;;;;;;;;;;;;;;;;5033273;28;20065;-43
2022/07/18 16:28:54;;;;;;;;;;;;;;;;;;5034685;28;19920;-43
2022/07/18 16:31:19;;;;;;;;;;;;;;;;;;5038809;28;19927;-43
2022/07/18 16:33:44;;;;;;;;;;;;;;;;;;5040375;28;19958;-42
2022/07/18 16:36:10;;;;;;;;;;;;;;;;;;5045519;28;19921;-42